createdAt,value
2023-02-16T00:01:25.612Z,1.09
2023-02-16T00:03:55.149Z,0.92
2023-02-16T00:06:23.813Z,0.87
2023-02-16T00:08:54.329Z,1.02
2023-02-16T00:11:45.185Z,0.82
2023-02-16T00:14:15.749Z,0.83
2023-02-16T00:16:45.660Z,0.76
2023-02-16T00:19:23.234Z,0.76
2023-02-16T00:21:53.762Z,1.09
2023-02-16T00:24:22.255Z,1.04
2023-02-16T00:26:51.210Z,0.80
2023-02-16T00:29:22.702Z,0.77
2023-02-16T00:31:53.259Z,0.68
2023-02-16T00:34:30.182Z,0.63
2023-02-16T00:37:00.143Z,0.66
2023-02-16T00:39:29.134Z,0.83
2023-02-16T00:42:00.144Z,0.95
2023-02-16T00:44:34.203Z,0.87
2023-02-16T00:47:12.337Z,0.73
2023-02-16T00:49:40.782Z,0.79
2023-02-16T00:52:25.831Z,0.64
2023-02-16T00:54:54.627Z,0.50
2023-02-16T00:57:23.052Z,0.66
2023-02-16T01:00:00.167Z,0.59
2023-02-16T01:02:30.338Z,0.54
2023-02-16T01:04:58.816Z,0.55
2023-02-16T01:07:44.092Z,0.54
2023-02-16T01:10:30.408Z,0.69
2023-02-16T01:12:58.237Z,0.82
2023-02-16T01:15:27.640Z,0.62
2023-02-16T01:17:57.820Z,0.55
2023-02-16T01:20:27.020Z,0.47
2023-02-16T01:22:55.254Z,0.55
2023-02-16T01:25:23.750Z,0.36
2023-02-16T01:27:51.934Z,0.38
2023-02-16T01:30:21.552Z,0.34
2023-02-16T01:32:52.313Z,0.48
2023-02-16T01:35:22.872Z,0.55
2023-02-16T01:37:51.395Z,0.53
2023-02-16T01:40:28.446Z,0.36
2023-02-16T01:43:03.221Z,0.54
2023-02-16T01:45:35.992Z,0.53
2023-02-16T01:48:05.699Z,0.58
2023-02-16T01:50:45.371Z,0.52
2023-02-16T01:53:20.763Z,0.44
2023-02-16T01:55:55.137Z,0.35
2023-02-16T01:58:34.881Z,0.52
2023-02-16T02:01:39.143Z,0.76
2023-02-16T02:04:51.818Z,0.69
2023-02-16T02:07:29.177Z,0.53
2023-02-16T02:10:02.482Z,0.37
2023-02-16T02:12:39.272Z,0.53
2023-02-16T02:15:09.283Z,0.66
2023-02-16T02:17:37.389Z,0.56
2023-02-16T02:20:13.171Z,0.42
2023-02-16T02:23:28.570Z,0.21
2023-02-16T02:26:45.099Z,0.32
2023-02-16T02:29:34.826Z,0.40
2023-02-16T02:32:12.896Z,0.63
2023-02-16T02:34:55.798Z,0.61
2023-02-16T02:37:36.642Z,0.29
2023-02-16T02:40:12.316Z,0.20
2023-02-16T02:42:46.321Z,0.45
2023-02-16T02:45:19.852Z,0.46
2023-02-16T02:47:49.744Z,0.04
2023-02-16T02:50:35.614Z,0.48
2023-02-16T02:53:07.007Z,0.40
2023-02-16T02:55:58.395Z,0.37
2023-02-16T02:58:46.367Z,0.45
2023-02-16T03:01:19.493Z,0.30
2023-02-16T03:03:51.814Z,0.45
2023-02-16T03:06:25.276Z,0.49
2023-02-16T03:09:01.665Z,0.40
2023-02-16T03:11:48.568Z,0.24
2023-02-16T03:14:19.985Z,0.38
2023-02-16T03:17:06.324Z,-0.11
2023-02-16T03:19:52.135Z,0.03
2023-02-16T03:22:38.273Z,0.06
2023-02-16T03:25:24.718Z,0.07
2023-02-16T03:28:10.376Z,0.15
2023-02-16T03:30:38.982Z,0.07
2023-02-16T03:33:08.576Z,0.08
2023-02-16T03:35:38.132Z,0.17
2023-02-16T03:38:06.925Z,0.05
2023-02-16T03:40:36.620Z,-0.02
2023-02-16T03:43:07.808Z,0.04
2023-02-16T03:45:40.871Z,-0.09
2023-02-16T03:48:11.786Z,-0.10
2023-02-16T03:50:39.959Z,0.07
2023-02-16T03:53:07.951Z,0.35
2023-02-16T03:55:38.072Z,0.39
2023-02-16T03:58:06.652Z,0.02
2023-02-16T04:00:35.706Z,0.09
2023-02-16T04:03:04.748Z,0.10
2023-02-16T04:05:34.842Z,0.26
2023-02-16T04:08:02.718Z,0.18
2023-02-16T04:10:31.189Z,0.21
2023-02-16T04:12:58.149Z,0.26
2023-02-16T04:15:27.696Z,0.35
2023-02-16T04:17:56.786Z,0.20
2023-02-16T04:20:27.793Z,0.29
2023-02-16T04:22:58.352Z,0.50
2023-02-16T04:25:26.386Z,0.51
2023-02-16T04:27:54.963Z,0.04
2023-02-16T04:30:25.860Z,0.00
2023-02-16T04:32:53.906Z,0.03
2023-02-16T04:35:22.466Z,-0.02
2023-02-16T04:37:51.079Z,-0.04
2023-02-16T04:40:20.786Z,0.03
2023-02-16T04:42:49.157Z,0.03
2023-02-16T04:45:17.926Z,0.01
2023-02-16T04:47:46.006Z,-0.07
2023-02-16T04:50:15.080Z,0.20
2023-02-16T04:52:44.429Z,-0.03
2023-02-16T04:55:12.548Z,0.25
2023-02-16T04:57:42.521Z,0.08
2023-02-16T05:00:13.463Z,0.13
2023-02-16T05:02:41.527Z,0.03
2023-02-16T05:05:09.894Z,0.17
2023-02-16T05:07:38.899Z,0.22
2023-02-16T05:10:07.897Z,0.37
2023-02-16T05:12:53.883Z,0.24
2023-02-16T05:15:23.388Z,0.56
2023-02-16T05:17:51.544Z,0.59
2023-02-16T05:20:20.419Z,0.48
2023-02-16T05:22:48.712Z,0.49
2023-02-16T05:25:17.850Z,0.72
2023-02-16T05:27:46.459Z,0.62
2023-02-16T05:30:15.853Z,0.29
2023-02-16T05:32:45.398Z,0.35
2023-02-16T05:35:13.966Z,0.32
2023-02-16T05:37:42.840Z,0.27
2023-02-16T05:40:13.250Z,0.54
2023-02-16T05:42:42.826Z,0.46
2023-02-16T05:45:11.511Z,0.31
2023-02-16T05:47:40.125Z,0.30
2023-02-16T05:50:11.229Z,0.01
2023-02-16T05:52:40.019Z,0.25
2023-02-16T05:55:08.282Z,0.41
2023-02-16T05:57:37.224Z,0.60
2023-02-16T06:00:06.755Z,0.39
2023-02-16T06:02:35.072Z,-0.09
2023-02-16T06:05:04.049Z,-0.03
2023-02-16T06:07:33.457Z,0.00
2023-02-16T06:10:02.566Z,-0.13
2023-02-16T06:12:32.672Z,-0.13
2023-02-16T06:15:00.978Z,-0.02
2023-02-16T06:17:29.658Z,-0.03
2023-02-16T06:19:58.544Z,0.02
2023-02-16T06:22:26.965Z,0.27
2023-02-16T06:24:57.186Z,-0.02
2023-02-16T06:27:26.231Z,0.33
2023-02-16T06:29:54.631Z,0.17
2023-02-16T06:32:23.505Z,0.15
2023-02-16T06:34:52.702Z,0.00
2023-02-16T06:37:22.507Z,0.26
2023-02-16T06:39:51.708Z,-0.13
2023-02-16T06:42:22.225Z,0.00
2023-02-16T06:44:50.505Z,-0.09
2023-02-16T06:47:19.396Z,-0.21
2023-02-16T06:49:48.420Z,-0.11
2023-02-16T06:52:16.907Z,0.07
2023-02-16T06:54:45.890Z,0.26
2023-02-16T06:57:14.643Z,0.51
2023-02-16T06:59:44.564Z,0.68
2023-02-16T07:02:13.570Z,0.55
2023-02-16T07:04:42.255Z,0.57
2023-02-16T07:07:12.258Z,0.29
2023-02-16T07:09:41.075Z,0.40
2023-02-16T07:12:10.211Z,0.52
2023-02-16T07:14:39.594Z,0.55
2023-02-16T07:17:09.795Z,0.62
2023-02-16T07:19:38.149Z,0.36
2023-02-16T07:22:06.750Z,0.56
2023-02-16T07:24:35.973Z,0.49
2023-02-16T07:27:05.446Z,0.50
2023-02-16T07:29:33.749Z,1.01
2023-02-16T07:32:03.212Z,1.13
2023-02-16T07:34:33.250Z,1.15
2023-02-16T07:37:01.545Z,1.21
2023-02-16T07:39:31.538Z,1.18
2023-02-16T07:42:00.008Z,0.78
2023-02-16T07:44:28.375Z,0.86
2023-02-16T07:46:57.145Z,1.00
2023-02-16T07:49:26.046Z,1.08
2023-02-16T07:51:55.616Z,1.02
2023-02-16T07:54:24.425Z,1.39
2023-02-16T07:56:53.526Z,1.33
2023-02-16T07:59:21.945Z,1.81
2023-02-16T08:01:54.443Z,1.78
2023-02-16T08:04:22.798Z,1.58
2023-02-16T08:06:51.515Z,1.95
2023-02-16T08:09:21.707Z,1.45
2023-02-16T08:11:50.093Z,1.50
2023-02-16T08:14:18.985Z,2.24
2023-02-16T08:16:50.328Z,2.12
2023-02-16T08:19:20.150Z,2.11
2023-02-16T08:21:50.013Z,1.87
2023-02-16T08:24:22.144Z,1.70
2023-02-16T08:26:51.613Z,2.04
2023-02-16T08:29:20.841Z,1.85
2023-02-16T08:31:50.771Z,1.82
2023-02-16T08:34:22.172Z,2.39
2023-02-16T08:36:56.890Z,2.36
2023-02-16T08:39:30.158Z,2.79
2023-02-16T08:41:59.608Z,3.17
2023-02-16T08:44:29.842Z,3.44
2023-02-16T08:47:01.624Z,3.48
2023-02-16T08:49:30.677Z,3.69
2023-02-16T08:52:01.733Z,3.47
2023-02-16T08:54:34.173Z,3.67
2023-02-16T08:57:04.119Z,3.24
2023-02-16T08:59:32.881Z,3.43
2023-02-16T09:02:02.024Z,3.95
2023-02-16T09:04:30.601Z,3.08
2023-02-16T09:06:59.705Z,3.09
2023-02-16T09:09:29.188Z,3.63
2023-02-16T09:11:58.880Z,3.56
2023-02-16T09:14:28.126Z,3.18
2023-02-16T09:16:56.965Z,3.12
2023-02-16T09:19:25.806Z,3.31
2023-02-16T09:21:56.792Z,2.99
2023-02-16T09:24:25.913Z,3.28
2023-02-16T09:26:54.051Z,3.61
2023-02-16T09:29:23.828Z,3.37
2023-02-16T09:31:53.058Z,4.41
2023-02-16T09:34:23.978Z,4.94
2023-02-16T09:36:53.773Z,5.02
2023-02-16T09:39:22.213Z,5.04
2023-02-16T09:42:04.486Z,5.31
2023-02-16T09:44:43.548Z,4.84
2023-02-16T09:47:22.307Z,4.81
2023-02-16T09:49:51.488Z,4.90
2023-02-16T09:52:27.024Z,4.91
2023-02-16T09:54:59.640Z,4.45
2023-02-16T09:57:48.507Z,4.46
2023-02-16T10:00:32.146Z,4.48
2023-02-16T10:03:15.049Z,4.88
2023-02-16T10:05:49.658Z,5.36
2023-02-16T10:08:28.235Z,5.47
2023-02-16T10:11:05.219Z,4.41
2023-02-16T10:13:42.134Z,4.27
2023-02-16T10:16:18.559Z,4.58
2023-02-16T10:18:52.535Z,5.33
2023-02-16T10:21:27.038Z,5.19
2023-02-16T10:24:00.438Z,4.67
2023-02-16T10:26:33.887Z,3.97
2023-02-16T10:29:08.374Z,4.66
2023-02-16T10:31:43.754Z,5.47
2023-02-16T10:34:23.294Z,4.93
2023-02-16T10:37:13.243Z,4.96
2023-02-16T10:39:48.214Z,4.73
2023-02-16T10:42:23.937Z,4.73
2023-02-16T10:45:00.134Z,5.19
2023-02-16T10:47:42.378Z,5.30
2023-02-16T10:50:23.646Z,5.33
2023-02-16T10:52:54.214Z,4.94
2023-02-16T10:55:22.570Z,4.72
2023-02-16T10:57:56.591Z,6.08
2023-02-16T11:00:35.213Z,6.48
2023-02-16T11:03:07.306Z,6.30
2023-02-16T11:05:38.393Z,6.24
2023-02-16T11:08:08.791Z,6.66
2023-02-16T11:10:40.702Z,5.87
2023-02-16T11:13:19.858Z,5.59
2023-02-16T11:15:54.978Z,6.33
2023-02-16T11:18:37.274Z,6.35
2023-02-16T11:21:07.665Z,6.23
2023-02-16T11:23:38.141Z,6.71
2023-02-16T11:26:09.333Z,6.61
2023-02-16T11:28:39.823Z,6.17
2023-02-16T11:31:19.936Z,6.09
2023-02-16T11:34:02.311Z,6.21
2023-02-16T11:36:34.835Z,6.98
2023-02-16T11:39:08.058Z,5.90
2023-02-16T11:41:37.625Z,6.20
2023-02-16T11:44:07.748Z,6.47
2023-02-16T11:46:42.634Z,6.04
2023-02-16T11:49:35.306Z,6.25
2023-02-16T11:52:21.325Z,6.35
2023-02-16T11:54:51.674Z,5.81
2023-02-16T11:57:27.166Z,5.99
2023-02-16T11:59:57.722Z,6.23
2023-02-16T12:02:52.043Z,6.55
2023-02-16T12:05:29.086Z,6.76
2023-02-16T12:08:19.172Z,6.58
2023-02-16T12:11:03.591Z,6.72
2023-02-16T12:13:43.841Z,6.73
2023-02-16T12:16:26.470Z,7.12
2023-02-16T12:19:09.164Z,7.25
2023-02-16T12:21:47.112Z,7.07
2023-02-16T12:24:29.720Z,7.03
2023-02-16T12:27:02.094Z,7.06
2023-02-16T12:29:47.886Z,7.02
2023-02-16T12:32:32.422Z,7.74
2023-02-16T12:35:28.915Z,7.63
2023-02-16T12:38:05.771Z,7.53
2023-02-16T12:40:46.224Z,7.41
2023-02-16T12:43:33.077Z,7.58
2023-02-16T12:46:08.901Z,7.22
2023-02-16T12:48:44.174Z,7.40
2023-02-16T12:51:19.403Z,7.35
2023-02-16T12:53:59.922Z,7.47
2023-02-16T12:56:33.192Z,7.25
2023-02-16T12:59:19.166Z,7.38
2023-02-16T13:01:49.798Z,7.33
2023-02-16T13:04:24.320Z,6.83
2023-02-16T13:06:59.421Z,7.08
2023-02-16T13:09:39.321Z,7.67
2023-02-16T13:12:17.318Z,7.76
2023-02-16T13:14:54.033Z,7.93
2023-02-16T13:17:32.148Z,7.86
2023-02-16T13:20:03.283Z,7.60
2023-02-16T13:23:13.309Z,7.55
2023-02-16T13:26:01.650Z,7.51
2023-02-16T13:28:52.723Z,7.57
2023-02-16T13:31:34.529Z,7.51
2023-02-16T13:34:22.489Z,7.33
2023-02-16T13:37:06.042Z,7.52
2023-02-16T13:39:58.972Z,7.51
2023-02-16T13:43:01.387Z,7.76
2023-02-16T13:45:32.816Z,7.57
2023-02-16T13:48:02.544Z,7.15
2023-02-16T13:50:34.400Z,7.60
2023-02-16T13:53:14.796Z,7.87
2023-02-16T13:55:43.688Z,8.14
2023-02-16T13:58:33.000Z,7.85
2023-02-16T14:01:42.101Z,7.81
2023-02-16T14:04:36.124Z,8.23
2023-02-16T14:07:33.583Z,7.63
2023-02-16T14:10:02.320Z,7.56
2023-02-16T14:12:36.350Z,7.76
2023-02-16T14:15:09.178Z,7.81
2023-02-16T14:17:37.948Z,7.70
2023-02-16T14:20:27.060Z,7.64
2023-02-16T14:23:00.139Z,7.85
2023-02-16T14:25:46.828Z,8.12
2023-02-16T14:29:00.416Z,7.74
2023-02-16T14:31:34.157Z,8.12
2023-02-16T14:34:10.352Z,8.07
2023-02-16T14:37:28.258Z,7.75
2023-02-16T14:40:08.204Z,7.81
2023-02-16T14:42:38.739Z,7.98
2023-02-16T14:45:27.428Z,7.95
2023-02-16T14:48:12.746Z,8.15
2023-02-16T14:50:56.896Z,8.63
2023-02-16T14:54:05.045Z,7.94
2023-02-16T14:56:42.348Z,8.18
2023-02-16T14:59:22.694Z,8.64
2023-02-16T15:01:51.916Z,8.89
2023-02-16T15:04:31.108Z,8.49
2023-02-16T15:07:02.926Z,8.30
2023-02-16T15:09:35.373Z,7.78
2023-02-16T15:12:24.193Z,7.97
2023-02-16T15:14:56.348Z,7.88
2023-02-16T15:17:35.072Z,7.36
2023-02-16T15:20:13.097Z,7.59
2023-02-16T15:22:50.187Z,7.53
2023-02-16T15:25:25.243Z,8.00
2023-02-16T15:28:01.387Z,8.03
2023-02-16T15:30:31.945Z,8.01
2023-02-16T15:33:02.890Z,7.92
2023-02-16T15:35:37.728Z,7.77
2023-02-16T15:38:09.918Z,7.71
2023-02-16T15:40:40.041Z,8.09
2023-02-16T15:43:20.744Z,7.69
2023-02-16T15:45:53.274Z,7.53
2023-02-16T15:48:31.523Z,8.00
2023-02-16T15:51:11.804Z,7.95
2023-02-16T15:53:52.289Z,8.12
2023-02-16T15:56:39.669Z,7.48
2023-02-16T15:59:24.084Z,7.58
2023-02-16T16:02:00.246Z,8.22
2023-02-16T16:04:30.426Z,8.10
2023-02-16T16:07:02.371Z,8.08
2023-02-16T16:09:34.062Z,8.05
2023-02-16T16:12:05.887Z,7.87
2023-02-16T16:14:37.403Z,7.72
2023-02-16T16:17:09.617Z,7.75
2023-02-16T16:19:40.112Z,7.73
2023-02-16T16:22:30.945Z,7.57
2023-02-16T16:24:59.665Z,7.43
2023-02-16T16:27:33.797Z,7.38
2023-02-16T16:30:15.626Z,7.32
2023-02-16T16:32:45.123Z,7.11
2023-02-16T16:35:21.690Z,6.84
2023-02-16T16:37:54.416Z,6.84
2023-02-16T16:40:26.068Z,6.85
2023-02-16T16:43:18.302Z,6.46
2023-02-16T16:45:48.481Z,6.43
2023-02-16T16:48:21.358Z,6.45
2023-02-16T16:50:50.937Z,6.67
2023-02-16T16:53:53.656Z,6.44
2023-02-16T16:56:23.223Z,6.23
2023-02-16T16:58:53.591Z,6.60
2023-02-16T17:01:22.575Z,6.46
2023-02-16T17:03:53.606Z,6.47
2023-02-16T17:06:22.930Z,6.42
2023-02-16T17:08:55.219Z,6.21
2023-02-16T17:11:27.533Z,6.34
2023-02-16T17:13:58.581Z,6.54
2023-02-16T17:16:30.805Z,6.29
2023-02-16T17:18:59.412Z,6.24
2023-02-16T17:21:27.841Z,6.00
2023-02-16T17:23:57.709Z,6.18
2023-02-16T17:26:26.624Z,6.14
2023-02-16T17:28:54.806Z,6.03
2023-02-16T17:31:23.460Z,6.09
2023-02-16T17:33:52.987Z,6.02
2023-02-16T17:36:23.973Z,6.29
2023-02-16T17:38:52.907Z,6.15
2023-02-16T17:41:25.300Z,6.11
2023-02-16T17:43:56.458Z,6.26
2023-02-16T17:46:27.007Z,6.16
2023-02-16T17:48:56.682Z,6.15
2023-02-16T17:51:27.115Z,6.26
2023-02-16T17:53:55.789Z,6.25
2023-02-16T17:56:26.813Z,6.29
2023-02-16T17:58:55.898Z,6.59
2023-02-16T18:01:24.131Z,6.48
2023-02-16T18:03:53.597Z,6.68
2023-02-16T18:06:25.921Z,6.82
2023-02-16T18:08:55.880Z,6.59
2023-02-16T18:11:25.501Z,6.79
2023-02-16T18:13:53.990Z,6.74
2023-02-16T18:16:28.327Z,6.74
2023-02-16T18:18:58.294Z,6.63
2023-02-16T18:21:27.062Z,6.66
2023-02-16T18:23:55.694Z,6.77
2023-02-16T18:26:25.494Z,6.81
2023-02-16T18:28:53.573Z,6.65
2023-02-16T18:31:23.019Z,6.89
2023-02-16T18:33:51.967Z,6.96
2023-02-16T18:36:20.660Z,6.89
2023-02-16T18:38:49.863Z,6.74
2023-02-16T18:41:18.427Z,6.47
2023-02-16T18:43:48.138Z,6.58
2023-02-16T18:46:16.948Z,6.84
2023-02-16T18:48:45.429Z,6.29
2023-02-16T18:51:14.720Z,6.66
2023-02-16T18:53:43.990Z,6.40
2023-02-16T18:56:13.690Z,6.38
2023-02-16T18:58:42.016Z,6.28
2023-02-16T19:01:16.737Z,6.40
2023-02-16T19:03:45.356Z,6.15
2023-02-16T19:06:13.905Z,6.34
2023-02-16T19:08:42.555Z,6.42
2023-02-16T19:11:10.783Z,6.56
2023-02-16T19:13:39.055Z,6.36
2023-02-16T19:16:08.506Z,6.37
2023-02-16T19:18:38.780Z,6.53
2023-02-16T19:21:08.756Z,6.34
2023-02-16T19:23:37.978Z,6.34
2023-02-16T19:26:07.588Z,6.47
2023-02-16T19:28:36.413Z,6.43
2023-02-16T19:31:06.896Z,6.12
2023-02-16T19:33:35.501Z,5.68
2023-02-16T19:36:09.680Z,5.66
2023-02-16T19:38:38.530Z,6.09
2023-02-16T19:41:11.832Z,6.01
2023-02-16T19:43:40.809Z,6.11
2023-02-16T19:46:10.365Z,5.79
2023-02-16T19:48:39.322Z,5.71
2023-02-16T19:51:10.623Z,5.92
2023-02-16T19:53:40.688Z,6.00
2023-02-16T19:56:11.135Z,5.89
2023-02-16T19:58:39.705Z,5.60
2023-02-16T20:01:10.031Z,5.76
2023-02-16T20:03:38.848Z,5.18
2023-02-16T20:06:17.643Z,5.10
2023-02-16T20:08:46.868Z,4.93
2023-02-16T20:11:16.695Z,4.82
2023-02-16T20:13:46.040Z,4.89
2023-02-16T20:16:15.595Z,5.03
2023-02-16T20:18:44.406Z,4.96
2023-02-16T20:21:17.892Z,5.42
2023-02-16T20:23:47.245Z,5.49
2023-02-16T20:26:19.699Z,5.63
2023-02-16T20:28:49.524Z,5.53
2023-02-16T20:31:20.153Z,5.58
2023-02-16T20:33:52.091Z,5.79
2023-02-16T20:36:22.683Z,5.71
2023-02-16T20:38:51.393Z,5.80
2023-02-16T20:41:21.160Z,5.73
2023-02-16T20:43:50.208Z,5.54
2023-02-16T20:46:19.487Z,6.01
2023-02-16T20:48:50.606Z,6.01
2023-02-16T20:51:19.384Z,6.04
2023-02-16T20:53:49.127Z,5.65
2023-02-16T20:56:21.574Z,5.58
2023-02-16T20:58:51.202Z,5.45
2023-02-16T21:01:23.750Z,5.40
2023-02-16T21:03:53.640Z,5.23
2023-02-16T21:06:22.396Z,5.80
2023-02-16T21:08:52.787Z,5.72
2023-02-16T21:11:21.090Z,5.74
2023-02-16T21:13:49.431Z,5.66
2023-02-16T21:16:18.508Z,5.30
2023-02-16T21:18:46.742Z,5.72
2023-02-16T21:21:16.729Z,5.67
2023-02-16T21:23:47.240Z,5.68
2023-02-16T21:26:17.758Z,5.39
2023-02-16T21:28:48.010Z,5.33
2023-02-16T21:31:18.648Z,5.26
2023-02-16T21:33:47.642Z,5.53
2023-02-16T21:36:17.920Z,5.87
2023-02-16T21:38:46.623Z,5.75
2023-02-16T21:41:26.456Z,5.57
2023-02-16T21:43:58.704Z,5.73
2023-02-16T21:46:27.569Z,5.67
2023-02-16T21:48:55.292Z,5.71
2023-02-16T21:51:31.736Z,5.72
2023-02-16T21:54:00.344Z,6.05
2023-02-16T21:56:34.364Z,5.67
2023-02-16T21:59:03.717Z,5.91
2023-02-16T22:01:35.212Z,6.06
2023-02-16T22:04:03.796Z,5.91
2023-02-16T22:06:35.379Z,6.22
2023-02-16T22:09:07.400Z,6.33
2023-02-16T22:11:38.338Z,6.30
2023-02-16T22:14:06.932Z,5.71
2023-02-16T22:16:38.326Z,5.74
2023-02-16T22:19:09.498Z,5.81
2023-02-16T22:21:39.276Z,6.12
2023-02-16T22:24:08.840Z,6.26
2023-02-16T22:26:39.216Z,6.05
2023-02-16T22:29:09.240Z,5.42
2023-02-16T22:31:38.500Z,5.65
2023-02-16T22:34:10.462Z,6.07
2023-02-16T22:36:39.002Z,6.08
2023-02-16T22:39:08.103Z,5.92
2023-02-16T22:41:37.120Z,5.99
2023-02-16T22:44:07.618Z,6.00
2023-02-16T22:46:36.114Z,6.21
2023-02-16T22:49:05.130Z,6.18
2023-02-16T22:51:33.402Z,6.02
2023-02-16T22:54:02.882Z,5.99
2023-02-16T22:56:32.479Z,5.80
2023-02-16T22:59:01.405Z,5.71
2023-02-16T23:01:32.853Z,5.48
2023-02-16T23:04:02.346Z,5.64
2023-02-16T23:06:33.419Z,5.88
2023-02-16T23:09:04.253Z,6.32
2023-02-16T23:11:35.496Z,6.02
2023-02-16T23:14:03.892Z,5.94
2023-02-16T23:16:34.168Z,6.28
2023-02-16T23:19:03.150Z,6.42
2023-02-16T23:21:33.657Z,6.37
2023-02-16T23:24:05.439Z,6.36
2023-02-16T23:26:33.784Z,6.07
2023-02-16T23:29:03.795Z,6.02
2023-02-16T23:31:38.825Z,5.90
2023-02-16T23:34:09.507Z,5.87
2023-02-16T23:36:40.124Z,5.85
2023-02-16T23:39:11.545Z,5.75
2023-02-16T23:41:41.145Z,5.89
2023-02-16T23:44:11.469Z,5.89
2023-02-16T23:46:41.892Z,5.99
2023-02-16T23:49:09.984Z,5.78
2023-02-16T23:51:38.239Z,6.00
2023-02-16T23:54:09.677Z,5.58
2023-02-16T23:56:37.957Z,5.85
2023-02-16T23:59:06.335Z,6.03
